createdAt,value
2022-10-23T00:00:39.699Z,101461.78
2022-10-23T00:03:06.299Z,101475.41
2022-10-23T00:05:32.965Z,101470.34
2022-10-23T00:08:00.153Z,101469.66
2022-10-23T00:10:28.337Z,101476.06
2022-10-23T00:12:54.996Z,101483.44
2022-10-23T00:15:23.526Z,101479.22
2022-10-23T00:17:50.385Z,101478.69
2022-10-23T00:20:17.542Z,101479.53
2022-10-23T00:22:44.027Z,101469.91
2022-10-23T00:25:11.310Z,101461.16
2022-10-23T00:27:37.822Z,101460.31
2022-10-23T00:30:05.950Z,101458.78
2022-10-23T00:35:04.515Z,101466.31
2022-10-23T00:37:31.416Z,101463.78
2022-10-23T00:39:58.050Z,101458.53
2022-10-23T00:42:24.747Z,101456.84
2022-10-23T00:44:51.188Z,101459.72
2022-10-23T00:47:18.410Z,101450.78
2022-10-23T00:49:44.950Z,101454.63
2022-10-23T00:52:13.343Z,101448.56
2022-10-23T00:54:42.137Z,101462.03
2022-10-23T00:57:12.535Z,101455.94
2022-10-23T00:59:39.100Z,101451.56
2022-10-23T01:02:06.140Z,101452.72
2022-10-23T01:04:34.031Z,101452.88
2022-10-23T01:07:27.930Z,101455.72
2022-10-23T01:10:10.324Z,101449.50
2022-10-23T01:13:00.132Z,101441.56
2022-10-23T01:15:36.690Z,101445.28
2022-10-23T01:18:25.360Z,101434.81
2022-10-23T01:21:20.899Z,101437.69
2022-10-23T01:24:06.927Z,101446.72
2022-10-23T01:26:57.377Z,101445.22
2022-10-23T01:29:31.920Z,101441.50
2022-10-23T01:32:06.067Z,101443.38
2022-10-23T01:34:44.680Z,101434.56
2022-10-23T01:37:13.893Z,101429.38
2022-10-23T01:39:47.845Z,101425.81
2022-10-23T01:42:21.814Z,101424.28
2022-10-23T01:45:03.207Z,101426.09
2022-10-23T01:47:33.951Z,101420.72
2022-10-23T01:50:02.481Z,101420.88
2022-10-23T01:52:29.168Z,101423.72
2022-10-23T01:55:00.461Z,101413.94
2022-10-23T01:57:31.264Z,101406.03
2022-10-23T02:00:06.217Z,101402.47
2022-10-23T02:02:33.957Z,101391.69
2022-10-23T02:05:15.338Z,101393.56
2022-10-23T02:07:42.425Z,101390.03
2022-10-23T02:10:10.458Z,101379.41
2022-10-23T02:12:56.057Z,101383.97
2022-10-23T02:15:31.769Z,101379.56
2022-10-23T02:18:27.609Z,101378.88
2022-10-23T02:20:59.041Z,101373.50
2022-10-23T02:23:33.130Z,101374.50
2022-10-23T02:26:12.592Z,101369.97
2022-10-23T02:28:46.389Z,101368.41
2022-10-23T02:31:16.344Z,101369.25
2022-10-23T02:33:45.868Z,101370.25
2022-10-23T02:36:12.724Z,101368.59
2022-10-23T02:38:41.745Z,101372.13
2022-10-23T02:41:17.524Z,101371.41
2022-10-23T02:44:10.180Z,101376.13
2022-10-23T02:46:50.891Z,101373.25
2022-10-23T02:49:26.623Z,101369.91
2022-10-23T02:52:21.359Z,101367.19
2022-10-23T02:55:25.472Z,101361.13
2022-10-23T02:58:08.842Z,101347.53
2022-10-23T03:00:39.687Z,101344.97
2022-10-23T03:03:13.311Z,101348.66
2022-10-23T03:05:41.360Z,101350.66
2022-10-23T03:08:13.451Z,101341.59
2022-10-23T03:10:41.973Z,101340.75
2022-10-23T03:13:10.468Z,101342.75
2022-10-23T03:15:36.939Z,101325.59
2022-10-23T03:18:03.668Z,101321.22
2022-10-23T03:20:30.155Z,101325.91
2022-10-23T03:22:56.611Z,101321.38
2022-10-23T03:25:23.061Z,101316.13
2022-10-23T03:27:49.579Z,101311.75
2022-10-23T03:30:17.261Z,101311.75
2022-10-23T03:32:43.796Z,101304.53
2022-10-23T03:35:10.631Z,101305.38
2022-10-23T03:37:37.164Z,101307.38
2022-10-23T03:40:04.535Z,101306.38
2022-10-23T03:42:31.012Z,101310.06
2022-10-23T03:44:57.459Z,101303.00
2022-10-23T03:47:23.989Z,101298.78
2022-10-23T03:49:50.460Z,101292.38
2022-10-23T03:52:16.958Z,101284.31
2022-10-23T03:54:43.524Z,101270.00
2022-10-23T03:57:09.991Z,101270.00
2022-10-23T03:59:36.511Z,101262.94
2022-10-23T04:02:03.025Z,101271.03
2022-10-23T04:04:29.727Z,101269.34
2022-10-23T04:06:56.190Z,101263.97
2022-10-23T04:09:22.781Z,101262.09
2022-10-23T04:11:49.318Z,101256.88
2022-10-23T04:14:15.825Z,101255.00
2022-10-23T04:16:42.402Z,101253.34
2022-10-23T04:19:08.989Z,101249.81
2022-10-23T04:21:35.530Z,101248.97
2022-10-23T04:24:02.070Z,101249.81
2022-10-23T04:26:28.604Z,101232.97
2022-10-23T04:28:55.057Z,101232.97
2022-10-23T04:31:21.666Z,101225.06
2022-10-23T04:33:48.259Z,101235.81
2022-10-23T04:36:14.728Z,101231.28
2022-10-23T04:38:41.252Z,101227.75
2022-10-23T04:41:08.421Z,101220.50
2022-10-23T04:43:35.147Z,101218.81
2022-10-23T04:46:01.812Z,101217.97
2022-10-23T04:48:29.238Z,101219.84
2022-10-23T04:51:01.235Z,101219.97
2022-10-23T04:53:28.916Z,101217.16
2022-10-23T04:55:56.984Z,101210.09
2022-10-23T04:58:24.200Z,101214.75
2022-10-23T05:00:51.101Z,101211.06
2022-10-23T05:03:18.753Z,101213.75
2022-10-23T05:05:45.974Z,101219.13
2022-10-23T05:08:15.629Z,101215.78
2022-10-23T05:10:44.519Z,101222.00
2022-10-23T05:13:11.085Z,101221.16
2022-10-23T05:15:37.608Z,101217.44
2022-10-23T05:18:25.815Z,101212.25
2022-10-23T05:20:56.635Z,101206.88
2022-10-23T05:23:25.444Z,101203.34
2022-10-23T05:25:51.914Z,101200.63
2022-10-23T05:28:18.575Z,101192.72
2022-10-23T05:30:45.660Z,101199.78
2022-10-23T05:33:12.348Z,101198.94
2022-10-23T05:35:39.502Z,101202.47
2022-10-23T05:38:07.557Z,101201.63
2022-10-23T05:40:34.188Z,101194.56
2022-10-23T05:43:00.631Z,101196.41
2022-10-23T05:45:27.182Z,101196.41
2022-10-23T05:47:53.901Z,101191.19
2022-10-23T05:50:21.417Z,101187.50
2022-10-23T05:52:48.602Z,101193.88
2022-10-23T05:55:16.467Z,101198.25
2022-10-23T05:57:43.363Z,101193.00
2022-10-23T06:00:10.805Z,101190.19
2022-10-23T06:02:37.409Z,101192.03
2022-10-23T06:05:04.169Z,101183.25
2022-10-23T06:07:33.589Z,101193.19
2022-10-23T06:10:02.694Z,101189.47
2022-10-23T06:12:29.224Z,101185.13
2022-10-23T06:14:55.716Z,101168.13
2022-10-23T06:17:22.232Z,101162.75
2022-10-23T06:19:49.005Z,101160.06
2022-10-23T06:22:15.788Z,101156.34
2022-10-23T06:24:42.373Z,101152.13
2022-10-23T06:27:08.875Z,101157.50
2022-10-23T06:29:35.340Z,101157.50
2022-10-23T06:32:01.962Z,101157.50
2022-10-23T06:34:28.436Z,101150.31
2022-10-23T06:36:54.902Z,101143.22
2022-10-23T06:39:22.158Z,101135.16
2022-10-23T06:41:48.606Z,101137.84
2022-10-23T06:44:15.119Z,101138.00
2022-10-23T06:46:41.761Z,101135.16
2022-10-23T06:49:08.225Z,101133.47
2022-10-23T06:51:34.679Z,101128.09
2022-10-23T06:54:01.201Z,101128.09
2022-10-23T06:56:29.221Z,101135.31
2022-10-23T06:58:56.571Z,101137.00
2022-10-23T07:01:23.166Z,101124.72
2022-10-23T07:03:49.701Z,101120.03
2022-10-23T07:06:16.239Z,101119.19
2022-10-23T07:08:42.853Z,101128.25
2022-10-23T07:11:10.855Z,101129.94
2022-10-23T07:13:38.860Z,101124.56
2022-10-23T07:16:13.380Z,101126.41
2022-10-23T07:18:39.977Z,101126.41
2022-10-23T07:21:06.547Z,101121.88
2022-10-23T07:23:32.997Z,101116.50
2022-10-23T07:26:11.158Z,101127.06
2022-10-23T07:28:37.875Z,101123.53
2022-10-23T07:31:04.562Z,101114.63
2022-10-23T07:33:31.076Z,101110.94
2022-10-23T07:35:57.531Z,101098.31
2022-10-23T07:38:24.106Z,101097.50
2022-10-23T07:40:50.716Z,101094.78
2022-10-23T07:43:18.612Z,101098.31
2022-10-23T07:45:48.438Z,101119.84
2022-10-23T07:48:15.169Z,101111.78
2022-10-23T07:50:41.820Z,101109.97
2022-10-23T07:53:30.996Z,101088.44
2022-10-23T07:56:00.401Z,101089.28
2022-10-23T07:58:28.032Z,101091.13
2022-10-23T08:00:58.617Z,101084.88
2022-10-23T08:03:26.781Z,101084.88
2022-10-23T08:05:54.804Z,101091.13
2022-10-23T08:08:22.369Z,101090.13
2022-10-23T08:10:50.138Z,101086.59
2022-10-23T08:13:17.546Z,101083.06
2022-10-23T08:15:47.000Z,101082.88
2022-10-23T08:18:14.003Z,101079.34
2022-10-23T08:20:44.471Z,101085.56
2022-10-23T08:23:16.899Z,101082.88
2022-10-23T08:25:43.544Z,101084.56
2022-10-23T08:28:10.096Z,101084.56
2022-10-23T08:30:37.356Z,101072.97
2022-10-23T08:33:05.651Z,101072.13
2022-10-23T08:35:38.998Z,101060.34
2022-10-23T08:38:06.424Z,101053.13
2022-10-23T08:40:33.005Z,101052.28
2022-10-23T08:43:05.801Z,101047.91
2022-10-23T08:45:45.028Z,101044.22
2022-10-23T08:48:30.298Z,101045.03
2022-10-23T08:51:06.252Z,101031.59
2022-10-23T08:53:59.756Z,101034.47
2022-10-23T08:56:30.908Z,101038.50
2022-10-23T08:59:00.018Z,101036.13
2022-10-23T09:01:47.750Z,101028.06
2022-10-23T09:04:15.454Z,101019.16
2022-10-23T09:10:08.764Z,101016.47
2022-10-23T09:12:35.276Z,101002.00
2022-10-23T09:15:14.256Z,101003.84
2022-10-23T09:17:43.380Z,101007.38
2022-10-23T09:20:19.435Z,101004.88
2022-10-23T09:22:47.628Z,101005.72
2022-10-23T09:25:26.081Z,101011.94
2022-10-23T09:27:57.330Z,101002.00
2022-10-23T09:30:29.128Z,100989.41
2022-10-23T09:32:55.618Z,100978.81
2022-10-23T09:35:24.749Z,100987.88
2022-10-23T09:37:53.376Z,100981.66
2022-10-23T09:40:40.472Z,100978.28
2022-10-23T09:43:18.980Z,100979.13
2022-10-23T09:45:57.536Z,100972.06
2022-10-23T09:48:24.060Z,100964.00
2022-10-23T09:50:59.710Z,100962.31
2022-10-23T09:53:38.458Z,100965.00
2022-10-23T09:56:11.773Z,100962.97
2022-10-23T09:58:54.665Z,100948.88
2022-10-23T10:01:26.855Z,100955.75
2022-10-23T10:03:54.060Z,100961.13
2022-10-23T10:06:30.143Z,100952.22
2022-10-23T10:08:59.178Z,100953.75
2022-10-23T10:11:54.706Z,100947.53
2022-10-23T10:14:39.822Z,100955.44
2022-10-23T10:17:13.615Z,100940.31
2022-10-23T10:19:40.066Z,100947.53
2022-10-23T10:22:47.075Z,100940.31
2022-10-23T10:25:19.631Z,100932.06
2022-10-23T10:28:16.617Z,100925.84
2022-10-23T10:31:04.999Z,100924.16
2022-10-23T10:33:43.604Z,100916.78
2022-10-23T10:36:54.509Z,100902.66
2022-10-23T10:39:47.673Z,100899.63
2022-10-23T10:42:47.544Z,100894.06
2022-10-23T10:45:33.023Z,100903.81
2022-10-23T10:48:17.809Z,100899.31
2022-10-23T10:50:56.996Z,100899.31
2022-10-23T10:54:09.493Z,100889.38
2022-10-23T10:56:41.605Z,100879.28
2022-10-23T10:59:21.985Z,100870.38
2022-10-23T11:02:26.090Z,100868.38
2022-10-23T11:05:17.475Z,100859.09
2022-10-23T11:08:07.173Z,100843.81
2022-10-23T11:10:37.780Z,100847.19
2022-10-23T11:13:04.578Z,100838.94
2022-10-23T11:15:39.634Z,100829.00
2022-10-23T11:18:15.656Z,100827.00
2022-10-23T11:20:59.146Z,100822.47
2022-10-23T11:23:56.218Z,100815.03
2022-10-23T11:26:46.894Z,100806.81
2022-10-23T11:29:25.192Z,100790.69
2022-10-23T11:32:26.990Z,100795.22
2022-10-23T11:35:02.538Z,100789.00
2022-10-23T11:37:29.221Z,100783.44
2022-10-23T11:40:02.560Z,100774.53
2022-10-23T11:42:34.202Z,100770.16
2022-10-23T11:45:00.714Z,100759.22
2022-10-23T11:47:39.980Z,100753.00
2022-10-23T11:50:06.672Z,100753.00
2022-10-23T11:52:38.745Z,100747.44
2022-10-23T11:55:21.610Z,100745.59
2022-10-23T11:58:07.026Z,100748.28
2022-10-23T12:00:38.689Z,100746.41
2022-10-23T12:03:06.379Z,100741.91
2022-10-23T12:05:37.855Z,100737.34
2022-10-23T12:08:08.282Z,100728.28
2022-10-23T12:10:50.857Z,100729.09
2022-10-23T12:13:38.309Z,100736.16
2022-10-23T12:16:08.239Z,100725.06
2022-10-23T12:18:46.608Z,100714.28
2022-10-23T12:21:18.252Z,100701.53
2022-10-23T12:23:59.820Z,100690.56
2022-10-23T12:26:43.472Z,100692.25
2022-10-23T12:29:36.768Z,100689.56
2022-10-23T12:32:21.577Z,100697.81
2022-10-23T12:35:06.529Z,100694.09
2022-10-23T12:38:05.144Z,100685.19
2022-10-23T12:40:31.705Z,100694.09
2022-10-23T12:43:00.116Z,100677.94
2022-10-23T12:45:30.039Z,100678.97
2022-10-23T12:47:56.621Z,100678.78
2022-10-23T12:50:27.750Z,100684.34
2022-10-23T12:52:57.537Z,100672.56
2022-10-23T12:55:26.587Z,100676.09
2022-10-23T12:57:53.689Z,100673.41
2022-10-23T13:00:24.870Z,100675.25
2022-10-23T13:03:02.440Z,100671.72
2022-10-23T13:05:30.387Z,100666.16
2022-10-23T13:07:59.215Z,100657.09
2022-10-23T13:10:26.344Z,100641.94
2022-10-23T13:13:14.072Z,100637.56
2022-10-23T13:15:42.979Z,100632.03
2022-10-23T13:18:11.586Z,100633.72
2022-10-23T13:20:42.392Z,100618.41
2022-10-23T13:23:11.920Z,100613.00
2022-10-23T13:25:39.869Z,100612.00
2022-10-23T13:28:18.195Z,100605.78
2022-10-23T13:30:48.546Z,100584.06
2022-10-23T13:33:22.205Z,100575.00
2022-10-23T13:36:15.099Z,100572.94
2022-10-23T13:38:46.482Z,100562.19
2022-10-23T13:41:18.995Z,100557.63
2022-10-23T13:43:49.506Z,100551.41
2022-10-23T13:46:18.661Z,100553.06
2022-10-23T13:48:45.714Z,100557.63
2022-10-23T13:51:21.074Z,100551.25
2022-10-23T13:53:48.205Z,100552.25
2022-10-23T13:56:17.903Z,100547.69
2022-10-23T13:58:44.442Z,100545.00
2022-10-23T14:01:23.282Z,100545.88
2022-10-23T14:03:51.885Z,100535.94
2022-10-23T14:06:18.901Z,100538.63
2022-10-23T14:08:46.021Z,100535.09
2022-10-23T14:13:41.925Z,100527.84
2022-10-23T14:16:11.539Z,100534.91
2022-10-23T14:18:38.007Z,100530.34
2022-10-23T14:21:06.973Z,100533.88
2022-10-23T14:23:33.466Z,100509.66
2022-10-23T14:26:07.281Z,100521.25
2022-10-23T14:28:34.221Z,100522.97
2022-10-23T14:31:08.984Z,100524.78
2022-10-23T14:33:35.526Z,100524.78
2022-10-23T14:36:02.329Z,100529.19
2022-10-23T14:38:29.369Z,100529.19
2022-10-23T14:40:55.886Z,100536.22
2022-10-23T14:43:23.779Z,100537.91
2022-10-23T14:45:50.275Z,100522.78
2022-10-23T14:48:17.078Z,100519.06
2022-10-23T14:50:46.510Z,100520.09
2022-10-23T14:53:13.407Z,100500.22
2022-10-23T14:55:40.056Z,100505.44
2022-10-23T14:58:06.969Z,100497.16
2022-10-23T15:00:33.465Z,100495.50
2022-10-23T15:03:00.270Z,100494.66
2022-10-23T15:05:26.836Z,100494.47
2022-10-23T15:07:55.090Z,100488.09
2022-10-23T15:10:21.625Z,100488.09
2022-10-23T15:12:48.633Z,100486.09
2022-10-23T15:15:15.244Z,100476.16
2022-10-23T15:17:42.315Z,100477.81
2022-10-23T15:20:09.351Z,100477.63
2022-10-23T15:22:35.850Z,100469.19
2022-10-23T15:25:02.570Z,100469.38
2022-10-23T15:27:29.063Z,100465.66
2022-10-23T15:29:55.570Z,100467.19
2022-10-23T15:32:22.107Z,100452.69
2022-10-23T15:34:49.758Z,100462.63
2022-10-23T15:37:16.371Z,100443.78
2022-10-23T15:39:43.104Z,100448.34
2022-10-23T15:42:10.596Z,100436.72
2022-10-23T15:44:37.109Z,100443.97
2022-10-23T15:47:03.639Z,100428.81
2022-10-23T15:49:30.967Z,100437.06
2022-10-23T15:51:58.080Z,100442.28
2022-10-23T15:54:28.037Z,100435.41
2022-10-23T15:56:57.535Z,100434.53
2022-10-23T15:59:25.367Z,100427.50
2022-10-23T16:01:52.091Z,100421.28
2022-10-23T16:04:19.050Z,100422.09
2022-10-23T16:06:46.136Z,100399.75
2022-10-23T16:09:12.641Z,100401.41
2022-10-23T16:11:41.380Z,100402.25
2022-10-23T16:14:12.552Z,100410.31
2022-10-23T16:16:39.035Z,100418.22
2022-10-23T16:19:05.575Z,100422.78
2022-10-23T16:21:35.940Z,100427.34
2022-10-23T16:24:05.739Z,100434.53
2022-10-23T16:26:32.693Z,100424.81
2022-10-23T16:29:01.789Z,100421.09
2022-10-23T16:31:29.718Z,100416.72
2022-10-23T16:34:00.938Z,100415.91
2022-10-23T16:36:28.000Z,100410.50
2022-10-23T16:38:54.545Z,100408.84
2022-10-23T16:41:21.087Z,100392.34
2022-10-23T16:43:47.592Z,100391.47
2022-10-23T16:46:18.213Z,100394.63
2022-10-23T16:48:44.983Z,100387.44
2022-10-23T16:51:15.512Z,100369.41
2022-10-23T16:53:43.109Z,100362.63
2022-10-23T16:56:12.089Z,100359.41
2022-10-23T16:58:42.105Z,100355.13
2022-10-23T17:01:14.773Z,100370.56
2022-10-23T17:03:45.936Z,100377.72
2022-10-23T17:06:15.149Z,100373.44
2022-10-23T17:08:42.305Z,100375.22
2022-10-23T17:11:15.872Z,100378.19
2022-10-23T17:13:53.649Z,100371.06
2022-10-23T17:16:36.835Z,100378.84
2022-10-23T17:19:16.076Z,100382.31
2022-10-23T17:21:53.833Z,100369.75
2022-10-23T17:24:20.356Z,100359.91
2022-10-23T17:26:46.803Z,100375.34
2022-10-23T17:29:16.298Z,100369.38
2022-10-23T17:31:46.174Z,100368.81
2022-10-23T17:34:15.530Z,100370.94
2022-10-23T17:36:44.970Z,100370.75
2022-10-23T17:39:14.700Z,100373.28
2022-10-23T17:41:41.447Z,100373.06
2022-10-23T17:44:07.945Z,100375.78
2022-10-23T17:46:34.437Z,100373.28
2022-10-23T17:51:35.573Z,100370.75
2022-10-23T17:54:08.115Z,100370.13
2022-10-23T17:56:37.639Z,100360.34
2022-10-23T17:59:14.727Z,100364.06
2022-10-23T18:01:46.501Z,100364.25
2022-10-23T18:04:15.488Z,100359.06
2022-10-23T18:06:45.785Z,100352.19
2022-10-23T18:09:12.972Z,100364.81
2022-10-23T18:11:45.307Z,100355.25
2022-10-23T18:14:15.098Z,100358.13
2022-10-23T18:16:41.792Z,100353.94
2022-10-23T18:19:08.882Z,100338.81
2022-10-23T18:21:36.373Z,100331.75
2022-10-23T18:24:03.717Z,100342.69
2022-10-23T18:26:34.848Z,100348.28
2022-10-23T18:29:04.329Z,100352.03
2022-10-23T18:31:30.947Z,100361.97
2022-10-23T18:34:07.431Z,100347.81
2022-10-23T18:36:37.454Z,100343.47
2022-10-23T18:39:05.516Z,100343.47
2022-10-23T18:41:34.363Z,100348.19
2022-10-23T18:44:01.358Z,100327.66
2022-10-23T18:46:28.174Z,100334.91
2022-10-23T18:48:54.698Z,100334.25
2022-10-23T18:51:24.494Z,100353.13
2022-10-23T18:53:51.495Z,100345.25
2022-10-23T18:56:23.611Z,100330.06
2022-10-23T18:58:55.464Z,100333.78
2022-10-23T19:01:23.279Z,100322.16
2022-10-23T19:03:50.319Z,100303.47
2022-10-23T19:06:17.141Z,100291.03
2022-10-23T19:08:44.729Z,100338.72
2022-10-23T19:11:13.267Z,100352.34
2022-10-23T19:13:41.354Z,100358.78
2022-10-23T19:16:14.314Z,100384.91
2022-10-23T19:18:46.937Z,100396.06
2022-10-23T19:21:14.070Z,100380.91
2022-10-23T19:23:42.279Z,100377.53
2022-10-23T19:26:12.335Z,100386.66
2022-10-23T19:28:45.829Z,100392.25
2022-10-23T19:31:12.857Z,100389.72
2022-10-23T19:33:39.591Z,100388.88
2022-10-23T19:36:11.130Z,100399.88
2022-10-23T19:38:40.768Z,100414.38
2022-10-23T19:41:07.590Z,100428.84
2022-10-23T19:43:34.296Z,100429.03
2022-10-23T19:46:04.984Z,100435.44
2022-10-23T19:48:34.400Z,100430.22
2022-10-23T19:51:01.337Z,100395.19
2022-10-23T19:53:27.834Z,100398.09
2022-10-23T19:56:05.454Z,100407.19
2022-10-23T19:58:32.775Z,100410.91
2022-10-23T20:00:59.452Z,100405.69
2022-10-23T20:03:26.063Z,100408.59
2022-10-23T20:05:52.599Z,100414.97
2022-10-23T20:08:19.107Z,100419.72
2022-10-23T20:10:47.883Z,100421.94
2022-10-23T20:13:19.796Z,100416.75
2022-10-23T20:15:47.115Z,100414.22
2022-10-23T20:18:13.622Z,100420.84
2022-10-23T20:20:41.725Z,100421.00
2022-10-23T20:23:08.924Z,100428.25
2022-10-23T20:25:35.621Z,100439.22
2022-10-23T20:28:02.756Z,100425.06
2022-10-23T20:30:29.369Z,100422.56
2022-10-23T20:32:55.879Z,100428.13
2022-10-23T20:35:22.369Z,100433.72
2022-10-23T20:37:48.872Z,100434.72
2022-10-23T20:40:15.389Z,100434.72
2022-10-23T20:42:41.919Z,100436.75
2022-10-23T20:45:08.943Z,100439.63
2022-10-23T20:47:35.412Z,100440.66
2022-10-23T20:50:01.878Z,100447.91
2022-10-23T20:52:30.142Z,100454.28
2022-10-23T20:54:56.739Z,100452.63
2022-10-23T20:57:23.266Z,100459.03
2022-10-23T20:59:49.787Z,100456.34
2022-10-23T21:02:16.313Z,100451.13
2022-10-23T21:04:42.869Z,100447.59
2022-10-23T21:07:11.066Z,100450.47
2022-10-23T21:09:39.044Z,100452.34
2022-10-23T21:12:06.590Z,100444.25
2022-10-23T21:14:33.534Z,100451.66
2022-10-23T21:17:00.252Z,100456.22
2022-10-23T21:19:26.815Z,100457.06
2022-10-23T21:21:54.674Z,100449.16
2022-10-23T21:24:21.479Z,100453.72
2022-10-23T21:26:48.139Z,100446.66
2022-10-23T21:29:19.840Z,100444.97
2022-10-23T21:31:55.588Z,100449.50
2022-10-23T21:34:23.186Z,100453.22
2022-10-23T21:39:36.178Z,100452.41
2022-10-23T21:42:02.665Z,100442.63
2022-10-23T21:44:29.214Z,100437.25
2022-10-23T21:46:55.846Z,100442.81
2022-10-23T21:49:22.368Z,100441.97
2022-10-23T21:51:48.854Z,100442.19
2022-10-23T21:54:15.502Z,100440.31
2022-10-23T21:56:47.457Z,100468.22
2022-10-23T21:59:17.767Z,100472.78
2022-10-23T22:01:46.122Z,100461.19
2022-10-23T22:04:14.786Z,100463.88
2022-10-23T22:06:42.679Z,100454.97
2022-10-23T22:09:11.405Z,100451.41
2022-10-23T22:11:37.986Z,100450.56
2022-10-23T22:14:04.913Z,100451.75
2022-10-23T22:16:31.790Z,100444.50
2022-10-23T22:18:58.359Z,100450.09
2022-10-23T22:21:27.652Z,100440.97
2022-10-23T22:23:56.015Z,100449.25
2022-10-23T22:26:35.584Z,100444.03
2022-10-23T22:29:06.350Z,100441.34
2022-10-23T22:31:34.413Z,100439.50
2022-10-23T22:34:13.091Z,100438.66
2022-10-23T22:36:48.745Z,100433.25
2022-10-23T22:39:15.371Z,100432.44
2022-10-23T22:41:43.559Z,100422.69
2022-10-23T22:44:11.822Z,100428.25
2022-10-23T22:46:38.689Z,100439.88
2022-10-23T22:51:33.248Z,100429.09
2022-10-23T22:54:00.085Z,100426.56
2022-10-23T22:56:29.896Z,100419.50
2022-10-23T22:58:57.071Z,100414.97
2022-10-23T23:01:26.457Z,100415.78
2022-10-23T23:03:53.816Z,100409.59
2022-10-23T23:06:21.513Z,100422.19
2022-10-23T23:08:48.738Z,100407.09
2022-10-23T23:11:16.770Z,100404.38
2022-10-23T23:13:43.833Z,100397.16
2022-10-23T23:16:28.087Z,100393.63
2022-10-23T23:18:55.892Z,100392.78
2022-10-23T23:21:22.395Z,100394.66
2022-10-23T23:23:49.182Z,100397.34
2022-10-23T23:26:17.108Z,100398.34
2022-10-23T23:28:44.354Z,100388.59
2022-10-23T23:31:19.494Z,100387.75
2022-10-23T23:33:46.023Z,100388.59
2022-10-23T23:36:16.032Z,100387.75
2022-10-23T23:38:42.648Z,100383.41
2022-10-23T23:41:14.216Z,100377.19
2022-10-23T23:43:41.329Z,100372.63
2022-10-23T23:46:08.184Z,100373.47
2022-10-23T23:48:34.673Z,100372.78
2022-10-23T23:51:01.152Z,100367.41
2022-10-23T23:53:27.678Z,100369.09
2022-10-23T23:55:54.203Z,100359.34
2022-10-23T23:58:20.664Z,100362.22
